createdAt,value
2023-04-18T00:01:40.477Z,101581.81
2023-04-18T00:04:10.506Z,101578.44
2023-04-18T00:06:38.548Z,101580.31
2023-04-18T00:09:06.632Z,101573.34
2023-04-18T00:11:34.559Z,101583.91
2023-04-18T00:14:03.264Z,101583.16
2023-04-18T00:16:33.081Z,101577.78
2023-04-18T00:19:02.202Z,101575.34
2023-04-18T00:21:30.129Z,101579.78
2023-04-18T00:23:57.960Z,101573.75
2023-04-18T00:26:25.801Z,101571.34
2023-04-18T00:28:54.521Z,101566.25
2023-04-18T00:31:22.302Z,101556.75
2023-04-18T00:33:53.109Z,101568.16
2023-04-18T00:36:20.863Z,101567.50
2023-04-18T00:38:48.636Z,101570.22
2023-04-18T00:41:16.774Z,101561.91
2023-04-18T00:43:44.559Z,101562.66
2023-04-18T00:46:12.571Z,101569.91
2023-04-18T00:48:40.718Z,101560.22
2023-04-18T00:51:10.900Z,101558.41
2023-04-18T00:53:38.937Z,101557.47
2023-04-18T00:56:07.478Z,101559.56
2023-04-18T00:58:35.887Z,101560.50
2023-04-18T01:01:03.943Z,101556.38
2023-04-18T01:03:32.995Z,101559.00
2023-04-18T01:06:01.151Z,101551.28
2023-04-18T01:08:30.606Z,101553.41
2023-04-18T01:10:59.600Z,101544.53
2023-04-18T01:13:27.510Z,101547.94
2023-04-18T01:15:55.739Z,101549.31
2023-04-18T01:18:24.343Z,101549.19
2023-04-18T01:20:53.350Z,101546.28
2023-04-18T01:23:21.954Z,101536.38
2023-04-18T01:25:51.047Z,101532.56
2023-04-18T01:28:21.228Z,101541.97
2023-04-18T01:30:49.683Z,101534.03
2023-04-18T01:33:17.500Z,101539.88
2023-04-18T01:35:48.226Z,101540.81
2023-04-18T01:38:15.948Z,101538.94
2023-04-18T01:40:43.914Z,101538.94
2023-04-18T01:43:13.092Z,101533.41
2023-04-18T01:45:40.909Z,101530.06
2023-04-18T01:48:10.079Z,101535.53
2023-04-18T01:50:37.807Z,101531.09
2023-04-18T01:53:05.601Z,101530.25
2023-04-18T01:55:33.300Z,101538.28
2023-04-18T01:58:01.105Z,101531.41
2023-04-18T02:00:30.280Z,101530.25
2023-04-18T02:02:59.553Z,101526.03
2023-04-18T02:05:28.061Z,101524.97
2023-04-18T02:07:55.941Z,101531.31
2023-04-18T02:10:23.895Z,101526.88
2023-04-18T02:12:51.666Z,101534.03
2023-04-18T02:15:19.862Z,101532.34
2023-04-18T02:17:50.527Z,101522.84
2023-04-18T02:20:18.272Z,101528.97
2023-04-18T02:22:47.776Z,101524.44
2023-04-18T02:25:15.545Z,101531.09
2023-04-18T02:27:43.386Z,101527.50
2023-04-18T02:30:11.700Z,101526.22
2023-04-18T02:32:39.623Z,101525.56
2023-04-18T02:35:09.463Z,101524.91
2023-04-18T02:37:37.238Z,101516.69
2023-04-18T02:40:05.864Z,101525.63
2023-04-18T02:42:33.624Z,101512.38
2023-04-18T02:45:02.625Z,101525.72
2023-04-18T02:47:35.409Z,101525.06
2023-04-18T02:50:13.085Z,101523.41
2023-04-18T02:52:40.940Z,101524.63
2023-04-18T02:55:10.588Z,101523.03
2023-04-18T02:57:41.916Z,101527.34
2023-04-18T03:00:38.814Z,101531.78
2023-04-18T03:03:06.698Z,101526.50
2023-04-18T03:05:55.765Z,101530.28
2023-04-18T03:08:23.875Z,101532.16
2023-04-18T03:10:51.747Z,101529.66
2023-04-18T03:13:23.286Z,101531.94
2023-04-18T03:15:52.075Z,101529.56
2023-04-18T03:18:19.936Z,101525.38
2023-04-18T03:20:48.076Z,101531.69
2023-04-18T03:23:19.071Z,101536.38
2023-04-18T03:25:47.329Z,101530.66
2023-04-18T03:28:15.147Z,101540.38
2023-04-18T03:30:43.108Z,101531.81
2023-04-18T03:33:11.979Z,101538.97
2023-04-18T03:35:40.202Z,101538.97
2023-04-18T03:38:08.440Z,101530.41
2023-04-18T03:40:42.106Z,101534.91
2023-04-18T03:43:16.802Z,101543.75
2023-04-18T03:45:47.238Z,101538.72
2023-04-18T03:48:16.982Z,101533.63
2023-04-18T03:50:46.783Z,101541.34
2023-04-18T03:53:15.022Z,101544.50
2023-04-18T03:55:44.627Z,101542.28
2023-04-18T03:58:15.346Z,101539.06
2023-04-18T04:00:43.417Z,101548.94
2023-04-18T04:03:12.467Z,101539.25
2023-04-18T04:05:41.276Z,101542.84
2023-04-18T04:08:09.067Z,101546.22
2023-04-18T04:10:37.031Z,101550.66
2023-04-18T04:13:06.618Z,101539.84
2023-04-18T04:15:38.475Z,101541.72
2023-04-18T04:18:08.978Z,101546.41
2023-04-18T04:20:39.984Z,101548.19
2023-04-18T04:23:13.272Z,101552.34
2023-04-18T04:25:42.400Z,101557.72
2023-04-18T04:28:22.684Z,101560.16
2023-04-18T04:30:56.583Z,101560.34
2023-04-18T04:33:28.382Z,101567.66
2023-04-18T04:36:01.217Z,101565.78
2023-04-18T04:38:31.387Z,101576.31
2023-04-18T04:40:59.792Z,101579.88
2023-04-18T04:43:29.652Z,101583.09
2023-04-18T04:45:58.365Z,101588.75
2023-04-18T04:48:26.951Z,101586.75
2023-04-18T04:50:57.866Z,101588.94
2023-04-18T04:53:27.946Z,101592.66
2023-04-18T04:55:56.090Z,101593.91
2023-04-18T04:58:24.283Z,101600.44
2023-04-18T05:01:07.521Z,101603.00
2023-04-18T05:03:36.465Z,101608.84
2023-04-18T05:06:05.821Z,101605.78
2023-04-18T05:08:33.905Z,101598.81
2023-04-18T05:11:02.402Z,101600.59
2023-04-18T05:13:30.152Z,101610.22
2023-04-18T05:15:59.282Z,101617.84
2023-04-18T05:18:28.539Z,101607.03
2023-04-18T05:20:56.905Z,101615.78
2023-04-18T05:23:24.804Z,101621.91
2023-04-18T05:25:53.282Z,101618.97
2023-04-18T05:28:21.136Z,101626.69
2023-04-18T05:30:48.948Z,101627.63
2023-04-18T05:33:16.803Z,101627.25
2023-04-18T05:35:45.904Z,101624.69
2023-04-18T05:38:13.734Z,101626.50
2023-04-18T05:40:42.398Z,101623.47
2023-04-18T05:43:10.176Z,101624.19
2023-04-18T05:45:38.103Z,101635.97
2023-04-18T05:48:06.076Z,101629.63
2023-04-18T05:50:33.884Z,101629.03
2023-04-18T05:53:03.032Z,101637.50
2023-04-18T05:55:30.840Z,101634.75
2023-04-18T05:57:58.620Z,101637.19
2023-04-18T06:00:26.398Z,101617.34
2023-04-18T06:02:54.207Z,101635.00
2023-04-18T06:05:22.730Z,101638.56
2023-04-18T06:07:50.791Z,101630.09
2023-04-18T06:10:20.164Z,101639.63
2023-04-18T06:12:47.892Z,101644.59
2023-04-18T06:15:15.649Z,101640.28
2023-04-18T06:17:44.578Z,101639.88
2023-04-18T06:20:12.716Z,101641.44
2023-04-18T06:22:40.418Z,101646.63
2023-04-18T06:25:09.944Z,101644.72
2023-04-18T06:27:39.402Z,101644.09
2023-04-18T06:30:08.173Z,101638.50
2023-04-18T06:32:35.973Z,101643.03
2023-04-18T06:35:03.977Z,101641.34
2023-04-18T06:37:31.768Z,101636.06
2023-04-18T06:39:59.607Z,101643.97
2023-04-18T06:42:27.315Z,101641.34
2023-04-18T06:44:57.272Z,101644.34
2023-04-18T06:47:25.188Z,101646.03
2023-04-18T06:49:52.953Z,101642.97
2023-04-18T06:52:20.638Z,101652.56
2023-04-18T06:54:48.384Z,101647.09
2023-04-18T06:57:16.923Z,101651.53
2023-04-18T06:59:44.647Z,101652.28
2023-04-18T07:02:14.032Z,101655.56
2023-04-18T07:04:41.918Z,101657.25
2023-04-18T07:07:09.823Z,101662.31
2023-04-18T07:09:37.592Z,101654.72
2023-04-18T07:12:05.534Z,101661.72
2023-04-18T07:14:34.302Z,101664.66
2023-04-18T07:17:02.709Z,101670.28
2023-04-18T07:19:31.859Z,101672.63
2023-04-18T07:21:59.603Z,101676.94
2023-04-18T07:24:27.412Z,101671.22
2023-04-18T07:26:55.317Z,101672.81
2023-04-18T07:29:23.244Z,101677.16
2023-04-18T07:31:51.218Z,101670.59
2023-04-18T07:34:19.056Z,101685.94
2023-04-18T07:36:48.173Z,101683.41
2023-04-18T07:39:15.889Z,101688.78
2023-04-18T07:41:43.630Z,101688.69
2023-04-18T07:44:11.635Z,101698.50
2023-04-18T07:46:39.596Z,101694.94
2023-04-18T07:49:07.446Z,101695.38
2023-04-18T07:51:35.298Z,101702.53
2023-04-18T07:54:04.340Z,101702.13
2023-04-18T07:56:32.068Z,101696.63
2023-04-18T07:58:59.759Z,101707.59
2023-04-18T08:01:27.660Z,101704.63
2023-04-18T08:03:57.729Z,101698.06
2023-04-18T08:06:26.196Z,101708.75
2023-04-18T08:08:54.075Z,101714.66
2023-04-18T08:11:23.341Z,101712.50
2023-04-18T08:13:51.153Z,101701.59
2023-04-18T08:16:18.950Z,101704.53
2023-04-18T08:18:46.707Z,101704.19
2023-04-18T08:21:14.518Z,101705.22
2023-04-18T08:23:42.242Z,101707.38
2023-04-18T08:26:10.168Z,101714.00
2023-04-18T08:28:39.331Z,101706.69
2023-04-18T08:31:07.141Z,101716.53
2023-04-18T08:33:35.022Z,101716.53
2023-04-18T08:36:03.212Z,101710.69
2023-04-18T08:38:31.110Z,101706.03
2023-04-18T08:40:58.834Z,101706.50
2023-04-18T08:43:26.816Z,101703.97
2023-04-18T08:46:00.277Z,101709.47
2023-04-18T08:48:28.851Z,101718.00
2023-04-18T08:50:58.736Z,101718.72
2023-04-18T08:53:27.543Z,101718.28
2023-04-18T08:55:56.414Z,101720.16
2023-04-18T08:58:27.004Z,101708.44
2023-04-18T09:00:56.299Z,101717.50
2023-04-18T09:03:40.875Z,101717.22
2023-04-18T09:06:18.576Z,101718.91
2023-04-18T09:08:58.746Z,101722.31
2023-04-18T09:11:28.987Z,101718.47
2023-04-18T09:13:58.718Z,101730.31
2023-04-18T09:16:29.237Z,101722.84
2023-04-18T09:19:11.939Z,101735.53
2023-04-18T09:21:41.463Z,101721.69
2023-04-18T09:24:23.554Z,101714.09
2023-04-18T09:26:53.769Z,101720.47
2023-04-18T09:29:23.369Z,101710.31
2023-04-18T09:32:03.124Z,101721.44
2023-04-18T09:34:34.013Z,101720.03
2023-04-18T09:37:10.373Z,101719.56
2023-04-18T09:39:39.495Z,101717.19
2023-04-18T09:42:08.098Z,101715.72
2023-04-18T09:44:35.897Z,101710.41
2023-04-18T09:47:07.827Z,101710.19
2023-04-18T09:49:35.720Z,101715.16
2023-04-18T09:52:07.390Z,101710.91
2023-04-18T09:54:39.495Z,101710.19
2023-04-18T09:57:13.622Z,101706.47
2023-04-18T09:59:47.717Z,101701.41
2023-04-18T10:02:23.621Z,101697.19
2023-04-18T10:04:52.493Z,101694.53
2023-04-18T10:07:21.839Z,101702.38
2023-04-18T10:09:50.453Z,101704.66
2023-04-18T10:12:19.022Z,101701.91
2023-04-18T10:14:47.293Z,101691.63
2023-04-18T10:17:17.146Z,101693.56
2023-04-18T10:19:46.767Z,101688.22
2023-04-18T10:22:14.553Z,101687.13
2023-04-18T10:24:50.203Z,101687.91
2023-04-18T10:27:18.638Z,101681.63
2023-04-18T10:29:51.176Z,101681.22
2023-04-18T10:32:24.401Z,101684.59
2023-04-18T10:34:54.630Z,101683.22
2023-04-18T10:37:22.455Z,101677.16
2023-04-18T10:39:52.050Z,101675.94
2023-04-18T10:42:19.848Z,101677.69
2023-04-18T10:45:20.941Z,101678.06
2023-04-18T10:47:50.930Z,101677.47
2023-04-18T10:50:18.876Z,101682.50
2023-04-18T10:52:46.739Z,101671.50
2023-04-18T10:55:18.328Z,101674.47
2023-04-18T10:57:47.862Z,101669.34
2023-04-18T11:00:18.228Z,101665.91
2023-04-18T11:02:52.932Z,101659.13
2023-04-18T11:05:23.294Z,101665.91
2023-04-18T11:07:51.234Z,101662.75
2023-04-18T11:10:20.771Z,101659.69
2023-04-18T11:12:48.793Z,101659.84
2023-04-18T11:15:21.232Z,101659.44
2023-04-18T11:18:01.488Z,101654.25
2023-04-18T11:20:30.156Z,101654.81
2023-04-18T11:22:59.540Z,101662.34
2023-04-18T11:25:29.495Z,101661.75
2023-04-18T11:28:00.450Z,101653.84
2023-04-18T11:30:28.994Z,101649.97
2023-04-18T11:32:58.115Z,101651.84
2023-04-18T11:35:25.961Z,101643.75
2023-04-18T11:37:56.067Z,101643.75
2023-04-18T11:40:24.240Z,101646.03
2023-04-18T11:42:51.976Z,101647.91
2023-04-18T11:45:19.740Z,101643.16
2023-04-18T11:47:47.551Z,101640.69
2023-04-18T11:50:16.739Z,101640.50
2023-04-18T11:52:50.223Z,101645.72
2023-04-18T11:55:21.370Z,101646.94
2023-04-18T11:57:54.095Z,101634.88
2023-04-18T12:00:35.006Z,101646.00
2023-04-18T12:03:05.291Z,101645.63
2023-04-18T12:05:36.929Z,101644.00
2023-04-18T12:08:09.421Z,101644.06
2023-04-18T12:10:37.464Z,101648.97
2023-04-18T12:13:08.753Z,101636.28
2023-04-18T12:15:39.753Z,101639.78
2023-04-18T12:18:09.281Z,101641.75
2023-04-18T12:20:46.448Z,101628.63
2023-04-18T12:23:30.448Z,101642.78
2023-04-18T12:26:02.483Z,101642.09
2023-04-18T12:28:30.791Z,101625.13
2023-04-18T12:30:58.955Z,101629.03
2023-04-18T12:33:26.899Z,101631.81
2023-04-18T12:35:56.037Z,101632.91
2023-04-18T12:38:24.656Z,101629.13
2023-04-18T12:40:53.080Z,101623.22
2023-04-18T12:43:21.183Z,101609.09
2023-04-18T12:45:49.048Z,101620.03
2023-04-18T12:48:17.003Z,101623.53
2023-04-18T12:50:44.854Z,101631.97
2023-04-18T12:53:14.111Z,101622.16
2023-04-18T12:55:42.017Z,101629.97
2023-04-18T12:58:09.748Z,101623.53
2023-04-18T13:00:38.086Z,101617.50
2023-04-18T13:03:06.072Z,101611.78
2023-04-18T13:05:34.506Z,101619.63
2023-04-18T13:08:15.328Z,101616.56
2023-04-18T13:10:46.112Z,101617.09
2023-04-18T13:13:19.837Z,101612.75
2023-04-18T13:15:47.694Z,101614.84
2023-04-18T13:18:15.676Z,101615.94
2023-04-18T13:20:44.018Z,101617.09
2023-04-18T13:23:11.765Z,101619.47
2023-04-18T13:25:42.761Z,101607.56
2023-04-18T13:28:11.904Z,101601.69
2023-04-18T13:30:39.891Z,101610.13
2023-04-18T13:33:07.883Z,101611.88
2023-04-18T13:35:41.570Z,101610.06
2023-04-18T13:38:11.029Z,101615.84
2023-04-18T13:40:39.206Z,101609.03
2023-04-18T13:43:06.892Z,101608.06
2023-04-18T13:45:36.255Z,101605.91
2023-04-18T13:48:04.327Z,101614.31
2023-04-18T13:50:32.129Z,101601.72
2023-04-18T13:52:59.836Z,101601.31
2023-04-18T13:55:30.752Z,101600.91
2023-04-18T13:57:58.619Z,101597.03
2023-04-18T14:00:28.448Z,101598.53
2023-04-18T14:02:57.722Z,101606.28
2023-04-18T14:05:25.831Z,101591.09
2023-04-18T14:07:53.594Z,101601.00
2023-04-18T14:10:21.684Z,101606.91
2023-04-18T14:12:49.491Z,101605.53
2023-04-18T14:15:17.711Z,101597.72
2023-04-18T14:17:46.063Z,101594.53
2023-04-18T14:20:19.152Z,101598.34
2023-04-18T14:22:47.008Z,101596.13
2023-04-18T14:25:16.993Z,101592.19
2023-04-18T14:27:50.186Z,101585.03
2023-04-18T14:30:17.975Z,101585.16
2023-04-18T14:32:45.783Z,101593.28
2023-04-18T14:35:15.065Z,101596.78
2023-04-18T14:37:42.867Z,101582.91
2023-04-18T14:40:12.269Z,101593.81
2023-04-18T14:42:39.978Z,101590.03
2023-04-18T14:45:09.053Z,101590.44
2023-04-18T14:47:39.038Z,101588.91
2023-04-18T14:50:08.268Z,101588.22
2023-04-18T14:52:37.489Z,101589.22
2023-04-18T14:55:05.852Z,101594.53
2023-04-18T14:57:34.609Z,101597.75
2023-04-18T15:00:03.987Z,101590.75
2023-04-18T15:02:31.903Z,101593.88
2023-04-18T15:05:00.232Z,101593.56
2023-04-18T15:07:28.203Z,101593.56
2023-04-18T15:09:57.518Z,101596.81
2023-04-18T15:12:25.357Z,101594.97
2023-04-18T15:14:53.887Z,101590.63
2023-04-18T15:17:21.909Z,101598.19
2023-04-18T15:19:49.633Z,101597.75
2023-04-18T15:22:17.422Z,101595.50
2023-04-18T15:24:45.144Z,101604.22
2023-04-18T15:27:14.270Z,101598.59
2023-04-18T15:29:42.025Z,101600.19
2023-04-18T15:32:10.251Z,101602.81
2023-04-18T15:34:38.086Z,101601.41
2023-04-18T15:37:05.953Z,101602.50
2023-04-18T15:39:33.695Z,101604.31
2023-04-18T15:42:02.318Z,101608.53
2023-04-18T15:44:31.794Z,101597.44
2023-04-18T15:47:01.130Z,101606.72
2023-04-18T15:49:28.859Z,101604.31
2023-04-18T15:51:56.859Z,101603.94
2023-04-18T15:54:43.017Z,101602.69
2023-04-18T15:57:25.571Z,101613.47
2023-04-18T16:00:12.336Z,101602.56
2023-04-18T16:02:41.693Z,101600.59
2023-04-18T16:05:14.132Z,101595.97
2023-04-18T16:07:51.557Z,101594.00
2023-04-18T16:10:26.287Z,101590.75
2023-04-18T16:12:55.732Z,101591.31
2023-04-18T16:15:29.134Z,101590.03
2023-04-18T16:18:02.943Z,101590.59
2023-04-18T16:20:43.720Z,101585.31
2023-04-18T16:23:15.162Z,101589.63
2023-04-18T16:25:51.530Z,101590.06
2023-04-18T16:28:22.673Z,101590.34
2023-04-18T16:30:55.613Z,101596.34
2023-04-18T16:33:28.115Z,101599.00
2023-04-18T16:36:02.922Z,101598.00
2023-04-18T16:38:42.162Z,101596.03
2023-04-18T16:41:11.298Z,101601.41
2023-04-18T16:43:45.230Z,101597.63
2023-04-18T16:46:18.694Z,101587.41
2023-04-18T16:48:56.074Z,101591.88
2023-04-18T16:51:36.144Z,101589.34
2023-04-18T16:54:10.651Z,101590.47
2023-04-18T16:56:44.994Z,101581.91
2023-04-18T16:59:15.600Z,101584.84
2023-04-18T17:01:48.102Z,101586.09
2023-04-18T17:04:19.006Z,101582.16
2023-04-18T17:06:55.314Z,101584.25
2023-04-18T17:09:24.977Z,101580.19
2023-04-18T17:11:57.173Z,101581.41
2023-04-18T17:14:31.254Z,101590.09
2023-04-18T17:17:07.481Z,101590.78
2023-04-18T17:19:47.494Z,101583.22
2023-04-18T17:22:18.952Z,101582.38
2023-04-18T17:24:50.690Z,101573.41
2023-04-18T17:27:22.649Z,101583.63
2023-04-18T17:30:01.410Z,101584.47
2023-04-18T17:32:42.762Z,101587.84
2023-04-18T17:35:17.302Z,101579.28
2023-04-18T17:37:46.404Z,101592.31
2023-04-18T17:40:24.599Z,101590.59
2023-04-18T17:42:53.964Z,101593.66
2023-04-18T17:45:27.897Z,101590.28
2023-04-18T17:48:04.546Z,101598.09
2023-04-18T17:50:55.121Z,101593.97
2023-04-18T17:53:31.492Z,101596.19
2023-04-18T17:56:04.340Z,101602.75
2023-04-18T17:58:55.306Z,101602.19
2023-04-18T18:01:26.609Z,101607.88
2023-04-18T18:04:03.031Z,101606.84
2023-04-18T18:06:58.340Z,101604.84
2023-04-18T18:09:37.585Z,101605.91
2023-04-18T18:12:30.091Z,101610.75
2023-04-18T18:15:07.737Z,101614.19
2023-04-18T18:18:02.784Z,101620.00
2023-04-18T18:20:39.653Z,101613.53
2023-04-18T18:23:13.686Z,101605.94
2023-04-18T18:25:57.414Z,101624.16
2023-04-18T18:28:31.791Z,101621.63
2023-04-18T18:31:02.906Z,101621.88
2023-04-18T18:33:35.308Z,101622.97
2023-04-18T18:36:07.962Z,101622.50
2023-04-18T18:38:37.837Z,101622.31
2023-04-18T18:41:12.259Z,101618.72
2023-04-18T18:43:44.413Z,101626.94
2023-04-18T18:46:19.176Z,101623.81
2023-04-18T18:48:53.475Z,101623.81
2023-04-18T18:51:24.232Z,101633.47
2023-04-18T18:54:21.644Z,101639.00
2023-04-18T18:56:52.289Z,101642.28
2023-04-18T18:59:23.565Z,101639.25
2023-04-18T19:01:53.218Z,101650.13
2023-04-18T19:04:29.238Z,101649.53
2023-04-18T19:07:01.270Z,101653.41
2023-04-18T19:09:37.173Z,101655.44
2023-04-18T19:12:10.316Z,101654.13
2023-04-18T19:14:48.423Z,101668.84
2023-04-18T19:17:22.287Z,101652.09
2023-04-18T19:19:58.282Z,101662.94
2023-04-18T19:22:29.448Z,101667.03
2023-04-18T19:25:00.830Z,101667.53
2023-04-18T19:27:36.234Z,101673.19
2023-04-18T19:30:05.942Z,101674.16
2023-04-18T19:32:35.149Z,101680.28
2023-04-18T19:35:14.060Z,101675.72
2023-04-18T19:37:45.208Z,101675.72
2023-04-18T19:40:16.462Z,101677.41
2023-04-18T19:42:54.143Z,101680.78
2023-04-18T19:45:28.375Z,101675.13
2023-04-18T19:48:00.662Z,101681.97
2023-04-18T19:50:30.967Z,101680.75
2023-04-18T19:53:02.906Z,101689.56
2023-04-18T19:55:32.541Z,101688.47
2023-04-18T19:58:02.092Z,101682.44
2023-04-18T20:00:35.755Z,101683.41
2023-04-18T20:03:17.430Z,101686.06
2023-04-18T20:05:47.191Z,101685.34
2023-04-18T20:08:18.847Z,101694.03
2023-04-18T20:10:48.323Z,101692.34
2023-04-18T20:13:20.316Z,101688.72
2023-04-18T20:15:57.145Z,101674.50
2023-04-18T20:18:29.574Z,101687.53
2023-04-18T20:20:59.292Z,101685.84
2023-04-18T20:23:30.375Z,101689.34
2023-04-18T20:26:04.646Z,101685.25
2023-04-18T20:28:39.075Z,101691.63
2023-04-18T20:31:12.590Z,101691.41
2023-04-18T20:33:42.240Z,101686.09
2023-04-18T20:36:18.097Z,101684.41
2023-04-18T20:38:52.006Z,101690.66
2023-04-18T20:41:27.070Z,101694.91
2023-04-18T20:44:00.222Z,101697.78
2023-04-18T20:46:31.309Z,101698.63
2023-04-18T20:49:06.197Z,101702.00
2023-04-18T20:51:38.477Z,101702.47
2023-04-18T20:54:28.054Z,101695.25
2023-04-18T20:57:19.263Z,101703.22
2023-04-18T20:59:51.148Z,101696.94
2023-04-18T21:02:29.206Z,101707.56
2023-04-18T21:04:56.968Z,101712.13
2023-04-18T21:07:25.905Z,101713.94
2023-04-18T21:09:54.977Z,101708.75
2023-04-18T21:12:22.698Z,101711.41
2023-04-18T21:14:50.462Z,101717.56
2023-04-18T21:17:18.926Z,101711.66
2023-04-18T21:19:46.722Z,101713.34
2023-04-18T21:22:14.953Z,101709.72
2023-04-18T21:24:42.988Z,101719.47
2023-04-18T21:27:12.112Z,101722.25
2023-04-18T21:29:40.057Z,101714.56
2023-04-18T21:32:07.766Z,101709.38
2023-04-18T21:34:35.572Z,101714.56
2023-04-18T21:37:03.679Z,101715.75
2023-04-18T21:39:31.464Z,101720.34
2023-04-18T21:41:59.204Z,101715.75
2023-04-18T21:44:28.388Z,101722.03
2023-04-18T21:46:57.438Z,101723.00
2023-04-18T21:49:25.594Z,101720.34
2023-04-18T21:51:54.789Z,101727.44
2023-04-18T21:54:22.538Z,101730.94
2023-04-18T21:56:50.349Z,101729.97
2023-04-18T21:59:18.035Z,101724.69
2023-04-18T22:01:47.094Z,101724.69
2023-04-18T22:04:15.968Z,101713.34
2023-04-18T22:06:44.064Z,101714.06
2023-04-18T22:09:12.729Z,101722.03
2023-04-18T22:11:40.762Z,101724.69
2023-04-18T22:14:09.864Z,101715.25
2023-04-18T22:16:38.052Z,101716.00
2023-04-18T22:19:08.976Z,101717.69
2023-04-18T22:21:36.987Z,101727.56
2023-04-18T22:24:05.252Z,101723.44
2023-04-18T22:26:33.061Z,101722.50
2023-04-18T22:29:00.852Z,101725.63
2023-04-18T22:31:28.755Z,101726.50
2023-04-18T22:33:56.557Z,101724.56
2023-04-18T22:36:27.552Z,101726.50
2023-04-18T22:38:55.308Z,101731.78
2023-04-18T22:41:23.098Z,101737.09
2023-04-18T22:43:50.878Z,101730.09
2023-04-18T22:46:18.694Z,101729.25
2023-04-18T22:48:46.759Z,101734.56
2023-04-18T22:51:15.118Z,101733.81
2023-04-18T22:53:44.128Z,101735.53
2023-04-18T22:56:11.929Z,101740.09
2023-04-18T22:58:39.770Z,101734.28
2023-04-18T23:01:07.621Z,101730.69
2023-04-18T23:03:35.492Z,101737.78
2023-04-18T23:06:03.477Z,101737.78
2023-04-18T23:08:31.535Z,101736.94
2023-04-18T23:11:00.622Z,101738.91
2023-04-18T23:13:28.300Z,101735.50
2023-04-18T23:15:56.067Z,101733.81
2023-04-18T23:18:23.882Z,101731.28
2023-04-18T23:20:51.659Z,101728.50
2023-04-18T23:23:19.321Z,101730.66
2023-04-18T23:25:47.053Z,101736.19
2023-04-18T23:28:17.122Z,101726.66
2023-04-18T23:30:45.038Z,101724.28
2023-04-18T23:33:13.271Z,101731.38
2023-04-18T23:35:41.001Z,101720.88
2023-04-18T23:38:08.792Z,101722.59
2023-04-18T23:40:36.590Z,101725.22
2023-04-18T23:43:04.275Z,101721.84
2023-04-18T23:45:33.439Z,101724.63
2023-04-18T23:48:01.297Z,101726.41
2023-04-18T23:50:29.076Z,101719.44
2023-04-18T23:52:56.895Z,101724.00
2023-04-18T23:55:24.719Z,101727.59
2023-04-18T23:57:52.496Z,101729.28
